Weather observations for the past three days for
Denton Enterprise Airport
Imperial (Metric)
Date Time (cdt) Wind (mph) Vis. (mi.) Weather Sky Cond. Temperature (ºF) Relative Humidity Wind Chill (°F) Heat Index (°F) Pressure Precipitation (in)
Air Dwpt 6 hour altimeter (in) sea level (mb) 1 hr 3 hr 6 hr
Max. Min.
01 10:53 Vrbl 7 10.00 Fair CLR 91.9 69.1 47% 97 30.05 1016.5
01 09:53 S 6 10.00 Fair CLR 89.1 70 53% 94 30.05 1016.4
01 08:53 SE 7 10.00 Fair CLR 84.9 70 61% 89 30.05 1016.6
01 07:53 SE 3 10.00 Fair CLR 81 69.1 67% 84 30.04 1016.1
01 06:53 E 5 10.00 Fair CLR 79 68 84.9 77 69% 81 30.02 1015.6
01 05:53 SW 6 10.00 Fair CLR 80.1 66.9 64% 82 30.01 1014.9
01 04:53 S 3 10.00 Fair CLR 81 66.9 62% 83 30 1014.9
01 03:53 SE 5 10.00 A Few Clouds FEW080 82 66 58% 84 30.01 1015.1
01 02:53 SE 7 10.00 A Few Clouds FEW080 82.9 64.9 55% 85 30 1014.6
01 01:53 SE 6 10.00 Partly Cloudy SCT085 82.9 64 53% 84 30 1014.6
01 00:53 Calm 10.00 Fair CLR 77 63 98.1 77 62% 79 29.98 1014.2
31 23:53 Calm 10.00 Fair CLR 82 63 53% 83 29.97 1013.7
31 22:53 SE 5 10.00 Fair CLR 86 60.1 42% 86 29.97 1013.7
31 21:53 Calm 10.00 Fair CLR 84.9 61 45% 85 29.96 1013.5
31 20:53 SE 6 10.00 Fair CLR 88 60.1 39% 88 29.94 1012.8
31 19:53 S 8 10.00 Fair CLR 93.9 59 31% 93 29.93 1012.5
31 18:53 SE 12 10.00 Fair CLR 98.1 59 102 96.1 27% 98 29.93 1012.4
31 17:53 SE 14 G 21 10.00 Partly Cloudy SCT095 100 60.1 27% 101 29.93 1012.3
31 16:53 SE 16 G 31 10.00 Partly Cloudy SCT095 100 60.1 27% 101 29.94 1012.7
31 15:53 S 17 G 32 10.00 Mostly Cloudy BKN090 100.9 60.1 26% 102 29.96 1013.5
31 14:53 S 13 10.00 A Few Clouds FEW090 100 60.1 27% 101 29.98 1014.2
31 13:53 SE 8 G 22 10.00 Partly Cloudy SCT075 SCT090 97 64 34% 99 30 1014.9
31 12:53 SE 10 G 24 10.00 Fair CLR 97 63 97 79 33% 99 30.03 1015.7
31 11:53 S 13 G 24 10.00 Fair CLR 95 63 35% 96 30.04 1016.3
31 10:53 S 15 G 20 10.00 Fair CLR 93 62.1 36% 94 30.05 1016.5
31 09:53 S 10 10.00 Fair CLR 89.1 66 47% 92 30.05 1016.3
31 08:53 S 9 10.00 Fair CLR 84.9 69.1 59% 89 30.04 1016.2
31 07:53 SE 6 10.00 Fair CLR 80.1 69.1 69% 83 30.01 1015.3
31 06:53 SE 6 10.00 Fair CLR 79 66.9 84.9 79 67% 81 29.99 1014.4
31 05:53 S 8 10.00 Fair CLR 81 66.9 62% 83 29.97 1013.8
31 04:53 S 8 10.00 A Few Clouds FEW090 82.9 66.9 59% 86 29.97 1013.6
31 03:53 S 9 10.00 Fair CLR 82.9 66 57% 85 29.96 1013.4
31 02:53 S 9 10.00 Fair CLR 84 63 49% 85 29.96 1013.3
31 01:53 S 6 10.00 Fair CLR 81 64 57% 83 29.96 1013.2
31 00:53 SE 7 10.00 Fair CLR 84.9 64 98.1 82.9 50% 86 29.96 1013.2
30 23:53 SE 5 10.00 Fair CLR 82.9 63 51% 84 29.95 1013.0
30 22:53 SE 6 10.00 Mostly Cloudy BKN090 88 62.1 42% 88 29.95 1012.9
30 21:53 SE 6 10.00 Partly Cloudy SCT090 90 61 38% 90 29.94 1012.6
30 20:53 SE 5 10.00 Fair CLR 91.9 60.1 34% 92 29.91 1011.8
30 19:53 SE 9 10.00 A Few Clouds FEW095 96.1 57.9 28% 95 29.9 1011.5
30 18:53 SE 12 G 23 10.00 Fair CLR 98.1 57 102 97 25% 97 29.9 1011.5
30 17:53 SE 17 G 25 10.00 Fair CLR 100 57.9 25% 100 29.91 1011.6
30 16:53 SE 13 G 22 10.00 Fair CLR 99 59 27% 99 29.91 1011.7
30 15:53 SE 13 G 20 10.00 Partly Cloudy SCT090 100.9 59 25% 101 29.93 1012.3
30 14:53 SE 15 G 24 10.00 A Few Clouds FEW085 99 61 29% 100 29.95 1013.1
30 13:53 SE 12 G 23 10.00 A Few Clouds FEW080 100.9 63 29% 103 29.97 1013.6
30 12:53 S 15 G 26 10.00 A Few Clouds FEW075 99 64 100 77 32% 102 30 1014.7
30 11:53 S 13 G 26 10.00 Fair CLR 96.1 66.9 39% 100 30.02 1015.4
30 10:53 S 8 10.00 Fair CLR 93 68 44% 97 30.03 1015.9
30 09:53 S 13 10.00 Fair CLR 90 68 48% 94 30.03 1015.8
30 08:53 S 12 10.00 Fair CLR 86 69.1 57% 90 30.03 1015.8
30 07:53 SE 5 10.00 Fair CLR 80.1 68 67% 83 30.01 1015.3
30 06:53 SE 5 10.00 Fair CLR 78.1 66.9 84.9 77 69% 80 29.99 1014.6
30 05:53 SE 5 10.00 Fair CLR 79 66 65% 81 29.98 1014.0
30 04:53 SE 6 10.00 Fair CLR 82 66 58% 84 29.97 1013.6
30 03:53 SE 7 10.00 Fair CLR 82.9 64.9 55% 85 29.96 1013.5
30 02:53 E 7 10.00 Fair CLR 84 64 51% 85 29.97 1013.7
30 01:53 SE 3 10.00 Fair CLR 82.9 64 53% 84 29.97 1013.7
30 00:53 SE 5 10.00 Fair CLR 84 63 100 82.9 49% 85 29.97 1013.8
29 23:53 SE 5 10.00 Fair CLR 86 62.1 45% 87 29.97 1013.7
29 22:53 SE 6 10.00 Fair CLR 88 61 40% 88 29.97 1013.6
29 21:53 S 6 10.00 Fair CLR 90 61 38% 90 29.95 1013.3
29 20:53 SE 7 10.00 Fair CLR 93 60.1 33% 93 29.93 1012.6
29 19:53 SE 5 10.00 Fair CLR 95 60.1 31% 95 29.92 1012.2
29 18:53 S 12 10.00 Fair CLR 100 59 102 97 26% 100 29.93 1012.4
29 16:53 S 10 G 18 10.00 Fair CLR 100 60.1 27% 101 29.94 1012.8
29 15:53 S 8 G 20 10.00 A Few Clouds FEW090 100.9 61 27% 102 29.96 1013.5
29 14:53 SE 5 G 17 10.00 Fair CLR 100 61 28% 101 29.99 1014.4
29 13:53 Calm 10.00 Fair CLR 99 63 31% 101 30.02 1015.2
29 12:53 S 13 G 22 10.00 Fair CLR 99 64 99 75.9 32% 102 30.04 1016.0
29 11:53 S 6 10.00 Fair CLR 96.1 64.9 36% 99 30.06 1016.7
Date Time (cdt) Wind (mph) Vis. (mi.) Weather Sky Cond. Air Dwpt Max. Min. Relative Humidity Wind Chill (°F) Heat Index (°F) altimeter (in) sea level (mb) 1 hr 3 hr 6 hr
6 hour
Temperature (ºF) Pressure Precipitation (in)